Time;durP1;ratioP1;P1;durP2;ratioP2;P2;SDS_P1;SDS_P2;PMS_P1;PMS_P2;Temp;Humidity;BMP_temperature;BMP_pressure;BME280_temperature;BME280_humidity;BME280_pressure;Samples;Min_cycle;Max_cycle;Signal;HPM_P1;HPM_P2
2021/09/06 00:01:02;;;;;;;16.92;13.65;;;;;;;;;;4988363;28;20447;-84
2021/09/06 00:03:30;;;;;;;19.85;13.80;;;;;;;;;;5008234;28;20104;-85
2021/09/06 00:05:57;;;;;;;18.95;14.40;;;;;;;;;;5012827;28;20418;-85
2021/09/06 00:08:25;;;;;;;17.17;14.05;;;;;;;;;;5009269;28;20751;-84
2021/09/06 00:11:01;;;;;;;18.63;13.60;;;;;;;;;;5010569;28;20042;-84
2021/09/06 00:13:28;;;;;;;19.65;14.65;;;;;;;;;;4992961;28;20045;-85
2021/09/06 00:15:57;;;;;;;17.85;13.55;;;;;;;;;;5008546;28;20080;-84
2021/09/06 00:18:26;;;;;;;18.23;14.13;;;;;;;;;;4990103;28;20042;-84
2021/09/06 00:20:54;;;;;;;18.00;13.60;;;;;;;;;;5006094;28;20128;-84
2021/09/06 00:23:21;;;;;;;16.95;13.65;;;;;;;;;;5011705;28;20509;-84
2021/09/06 00:25:49;;;;;;;18.98;14.15;;;;;;;;;;4991765;28;20529;-84
2021/09/06 00:28:16;;;;;;;19.85;15.10;;;;;;;;;;4990700;28;20056;-84
2021/09/06 00:30:44;;;;;;;17.38;14.52;;;;;;;;;;4991306;28;20137;-85
2021/09/06 00:33:13;;;;;;;18.00;14.73;;;;;;;;;;4978162;28;20116;-84
2021/09/06 00:35:41;;;;;;;18.20;14.35;;;;;;;;;;4979790;28;20137;-84
2021/09/06 00:38:08;;;;;;;18.75;14.90;;;;;;;;;;4985609;28;20287;-84
2021/09/06 00:40:36;;;;;;;16.48;14.27;;;;;;;;;;4980633;28;20340;-84
2021/09/06 00:43:03;;;;;;;17.80;14.98;;;;;;;;;;4980301;28;20052;-85
2021/09/06 00:45:31;;;;;;;19.05;14.35;;;;;;;;;;4984949;28;20046;-84
2021/09/06 00:47:58;;;;;;;20.35;15.18;;;;;;;;;;4989944;28;20050;-84
2021/09/06 00:50:27;;;;;;;20.15;14.45;;;;;;;;;;4991227;28;20483;-84
2021/09/06 00:52:54;;;;;;;24.33;14.18;;;;;;;;;;5010342;28;20037;-84
2021/09/06 00:55:22;;;;;;;19.35;13.77;;;;;;;;;;5010111;28;20048;-84
2021/09/06 00:57:50;;;;;;;19.20;14.85;;;;;;;;;;4992181;28;20570;-85
2021/09/06 01:00:19;;;;;;;16.98;13.43;;;;;;;;;;5002916;28;20046;-84
2021/09/06 01:02:47;;;;;;;17.83;13.93;;;;;;;;;;4978486;28;20047;-84
2021/09/06 01:05:15;;;;;;;17.27;14.00;;;;;;;;;;4987156;28;20046;-84
2021/09/06 01:08:07;;;;;;;16.65;13.68;;;;;;;;;;4999234;28;20124;-85
2021/09/06 01:11:07;;;;;;;19.63;14.88;;;;;;;;;;4973210;28;20046;-85
2021/09/06 01:14:01;;;;;;;19.13;15.30;;;;;;;;;;4992033;28;20042;-85
2021/09/06 01:16:31;;;;;;;17.83;14.35;;;;;;;;;;4990270;28;20046;-85
2021/09/06 01:18:58;;;;;;;16.70;14.43;;;;;;;;;;4986470;28;20507;-85
2021/09/06 01:21:26;;;;;;;16.13;14.43;;;;;;;;;;4993996;28;20105;-85
2021/09/06 01:24:29;;;;;;;17.30;13.57;;;;;;;;;;5004760;28;20038;-84
2021/09/06 01:27:02;;;;;;;20.75;14.57;;;;;;;;;;4975120;28;20487;-84
2021/09/06 01:29:29;;;;;;;20.33;14.60;;;;;;;;;;4990908;28;20137;-85
2021/09/06 01:31:59;;;;;;;17.92;13.40;;;;;;;;;;4987735;28;20046;-83
2021/09/06 01:34:27;;;;;;;19.15;14.10;;;;;;;;;;4993239;28;20126;-85
2021/09/06 01:36:59;;;;;;;19.40;14.23;;;;;;;;;;4988865;28;20066;-85
2021/09/06 01:39:27;;;;;;;18.02;14.73;;;;;;;;;;4994869;28;20050;-85
2021/09/06 01:41:55;;;;;;;20.23;14.43;;;;;;;;;;4988008;28;20054;-85
2021/09/06 01:44:23;;;;;;;18.77;14.38;;;;;;;;;;4983300;28;20104;-85
2021/09/06 01:46:51;;;;;;;19.70;15.18;;;;;;;;;;4977546;28;20134;-84
2021/09/06 01:49:19;;;;;;;18.75;14.98;;;;;;;;;;5014536;28;20147;-84
2021/09/06 01:51:47;;;;;;;18.95;14.35;;;;;;;;;;4990549;28;20128;-85
2021/09/06 01:54:16;;;;;;;18.60;15.07;;;;;;;;;;5029858;28;20045;-84
2021/09/06 01:56:44;;;;;;;22.70;14.80;;;;;;;;;;4994510;28;20100;-85
2021/09/06 01:59:14;;;;;;;20.45;15.20;;;;;;;;;;4986431;28;20042;-84
2021/09/06 02:01:43;;;;;;;18.90;15.18;;;;;;;;;;4999046;28;20305;-85
2021/09/06 02:04:11;;;;;;;20.02;15.27;;;;;;;;;;5015812;28;20044;-84
2021/09/06 02:06:44;;;;;;;17.83;14.23;;;;;;;;;;5013329;28;20038;-85
2021/09/06 02:09:12;;;;;;;18.45;14.68;;;;;;;;;;5019211;28;20358;-84
2021/09/06 02:11:39;;;;;;;22.35;15.38;;;;;;;;;;5014600;28;20045;-84
2021/09/06 02:14:10;;;;;;;19.27;15.57;;;;;;;;;;5001951;28;20494;-85
2021/09/06 02:16:38;;;;;;;18.33;15.45;;;;;;;;;;4992559;28;20045;-84
2021/09/06 02:19:16;;;;;;;23.30;16.45;;;;;;;;;;4984228;28;20074;-84
2021/09/06 02:21:48;;;;;;;20.13;15.75;;;;;;;;;;4983914;28;20034;-84
2021/09/06 02:24:16;;;;;;;17.35;15.30;;;;;;;;;;4995202;28;20097;-84
2021/09/06 02:26:44;;;;;;;19.55;14.23;;;;;;;;;;4992016;28;20080;-84
2021/09/06 02:29:13;;;;;;;23.20;14.55;;;;;;;;;;4993024;28;20042;-84
2021/09/06 02:31:52;;;;;;;21.08;15.20;;;;;;;;;;4995731;28;20112;-84
2021/09/06 02:34:52;;;;;;;17.15;14.27;;;;;;;;;;4983523;28;20042;-84
2021/09/06 02:37:20;;;;;;;16.75;14.13;;;;;;;;;;4993939;28;20057;-83
2021/09/06 02:39:47;;;;;;;21.02;15.50;;;;;;;;;;4991799;28;20042;-84
2021/09/06 02:42:15;;;;;;;19.77;14.77;;;;;;;;;;4994920;28;20056;-84
2021/09/06 02:44:43;;;;;;;20.10;15.30;;;;;;;;;;5012376;28;20096;-84
2021/09/06 02:47:11;;;;;;;17.98;14.55;;;;;;;;;;4983938;28;20120;-84
2021/09/06 02:49:38;;;;;;;18.65;15.52;;;;;;;;;;4992147;28;20049;-84
2021/09/06 02:52:10;;;;;;;18.15;14.50;;;;;;;;;;4985473;28;20403;-84
2021/09/06 02:54:37;;;;;;;22.77;15.90;;;;;;;;;;4993567;28;20046;-84
2021/09/06 02:57:06;;;;;;;21.05;14.88;;;;;;;;;;4991592;28;20507;-84
2021/09/06 02:59:33;;;;;;;21.00;15.65;;;;;;;;;;4992728;28;20045;-84
2021/09/06 03:02:01;;;;;;;17.67;14.52;;;;;;;;;;4984202;28;20562;-84
2021/09/06 03:04:28;;;;;;;24.58;16.38;;;;;;;;;;4996081;28;20046;-84
2021/09/06 03:06:57;;;;;;;20.48;15.68;;;;;;;;;;4991134;28;20042;-84
2021/09/06 03:09:25;;;;;;;21.25;15.65;;;;;;;;;;4994913;28;20491;-84
2021/09/06 03:11:54;;;;;;;20.52;15.90;;;;;;;;;;4984747;28;20454;-84
2021/09/06 03:14:22;;;;;;;20.27;15.63;;;;;;;;;;4977281;28;20466;-83
2021/09/06 03:16:51;;;;;;;18.38;15.93;;;;;;;;;;4990437;28;20121;-84
2021/09/06 03:19:19;;;;;;;18.90;15.65;;;;;;;;;;4993751;28;20376;-84
2021/09/06 03:21:52;;;;;;;20.80;15.98;;;;;;;;;;4995187;28;20125;-84
2021/09/06 03:24:22;;;;;;;18.88;15.30;;;;;;;;;;4993596;28;20530;-84
2021/09/06 03:26:51;;;;;;;18.95;16.13;;;;;;;;;;4995765;28;20530;-84
2021/09/06 03:29:19;;;;;;;18.70;15.38;;;;;;;;;;4998973;28;20048;-84
2021/09/06 03:31:47;;;;;;;19.15;15.25;;;;;;;;;;4995890;28;20049;-83
2021/09/06 03:34:16;;;;;;;18.33;15.73;;;;;;;;;;4985355;28;20034;-83
2021/09/06 03:36:46;;;;;;;21.70;15.88;;;;;;;;;;4984911;28;20041;-84
2021/09/06 03:39:19;;;;;;;24.15;17.10;;;;;;;;;;4985017;28;20046;-84
2021/09/06 03:41:47;;;;;;;19.70;15.50;;;;;;;;;;5021192;28;20029;-84
2021/09/06 03:44:19;;;;;;;17.35;15.43;;;;;;;;;;4991285;28;20399;-84
2021/09/06 03:46:47;;;;;;;23.17;16.40;;;;;;;;;;4986105;28;20562;-84
2021/09/06 03:49:14;;;;;;;21.17;15.90;;;;;;;;;;4984252;28;20523;-84
2021/09/06 03:51:45;;;;;;;18.90;15.32;;;;;;;;;;4977356;28;20052;-84
2021/09/06 03:54:16;;;;;;;20.52;15.70;;;;;;;;;;4990770;28;20034;-84
2021/09/06 03:56:44;;;;;;;21.25;15.98;;;;;;;;;;4989304;28;20044;-84
2021/09/06 03:59:12;;;;;;;20.67;15.73;;;;;;;;;;4990629;28;20120;-83
2021/09/06 04:01:45;;;;;;;21.67;15.40;;;;;;;;;;4992609;28;20069;-83
2021/09/06 04:04:14;;;;;;;21.73;15.73;;;;;;;;;;4992397;28;20053;-83
2021/09/06 04:06:42;;;;;;;22.23;16.27;;;;;;;;;;4983333;28;20132;-84
2021/09/06 04:09:14;;;;;;;19.70;15.00;;;;;;;;;;4981673;28;20038;-84
2021/09/06 04:11:41;;;;;;;40.60;18.40;;;;;;;;;;4993732;28;20046;-83
2021/09/06 04:14:12;;;;;;;25.98;16.90;;;;;;;;;;4989613;28;20045;-84
2021/09/06 04:16:40;;;;;;;25.02;16.90;;;;;;;;;;4990236;28;20042;-84
2021/09/06 04:19:09;;;;;;;26.25;15.90;;;;;;;;;;4994051;28;20439;-84
2021/09/06 04:21:36;;;;;;;22.15;15.73;;;;;;;;;;4974417;28;20066;-84
2021/09/06 04:24:05;;;;;;;20.42;15.93;;;;;;;;;;4991283;28;20146;-84
2021/09/06 04:26:34;;;;;;;22.48;15.88;;;;;;;;;;4992966;28;20411;-84
2021/09/06 04:29:03;;;;;;;19.95;15.55;;;;;;;;;;4982639;28;20058;-84
2021/09/06 04:31:31;;;;;;;21.95;15.85;;;;;;;;;;4990919;28;20046;-84
2021/09/06 04:33:58;;;;;;;24.45;17.58;;;;;;;;;;4986666;28;20129;-84
2021/09/06 04:36:30;;;;;;;26.02;16.60;;;;;;;;;;4982586;28;20050;-83
2021/09/06 04:38:58;;;;;;;21.55;16.90;;;;;;;;;;4991869;28;20053;-84
2021/09/06 04:41:25;;;;;;;24.33;17.05;;;;;;;;;;4991750;28;20034;-84
2021/09/06 04:43:54;;;;;;;21.45;16.17;;;;;;;;;;4984346;28;20061;-84
2021/09/06 04:46:21;;;;;;;22.13;15.55;;;;;;;;;;4981679;28;20128;-84
2021/09/06 04:48:50;;;;;;;20.73;16.75;;;;;;;;;;4998187;28;20018;-83
2021/09/06 04:51:19;;;;;;;21.98;15.45;;;;;;;;;;5033683;28;20042;-84
2021/09/06 04:53:48;;;;;;;20.38;16.30;;;;;;;;;;5004953;28;20056;-83
2021/09/06 04:56:22;;;;;;;20.20;16.50;;;;;;;;;;5019624;28;20029;-83
2021/09/06 04:58:50;;;;;;;21.13;16.30;;;;;;;;;;4996970;28;20109;-83
2021/09/06 05:01:18;;;;;;;19.15;15.65;;;;;;;;;;4997529;28;20049;-84
2021/09/06 05:03:47;;;;;;;19.42;16.27;;;;;;;;;;4989479;28;20124;-84
2021/09/06 05:06:14;;;;;;;21.27;16.45;;;;;;;;;;5009069;28;20037;-84
2021/09/06 05:08:42;;;;;;;19.83;15.13;;;;;;;;;;4991893;28;20483;-84
2021/09/06 05:11:11;;;;;;;21.80;15.48;;;;;;;;;;4991789;28;20038;-84
2021/09/06 05:13:38;;;;;;;26.08;16.25;;;;;;;;;;4989626;28;20050;-83
2021/09/06 05:16:06;;;;;;;21.45;16.63;;;;;;;;;;4994764;28;20403;-84
2021/09/06 05:18:33;;;;;;;20.40;15.75;;;;;;;;;;4992519;28;20061;-83
2021/09/06 05:21:02;;;;;;;21.35;15.88;;;;;;;;;;4995616;28;20503;-84
2021/09/06 05:23:30;;;;;;;21.15;16.20;;;;;;;;;;4989623;28;20034;-83
2021/09/06 05:25:58;;;;;;;21.63;15.80;;;;;;;;;;4992742;28;20049;-84
2021/09/06 05:28:29;;;;;;;20.63;14.95;;;;;;;;;;4980961;28;20073;-84
2021/09/06 05:30:57;;;;;;;19.48;15.35;;;;;;;;;;4985080;28;20093;-84
2021/09/06 05:33:26;;;;;;;21.88;15.98;;;;;;;;;;4980123;28;20097;-84
2021/09/06 05:35:54;;;;;;;19.55;15.63;;;;;;;;;;4992026;28;20046;-83
2021/09/06 05:38:24;;;;;;;21.92;16.17;;;;;;;;;;4989026;28;20053;-83
2021/09/06 05:41:26;;;;;;;31.58;16.75;;;;;;;;;;4989860;28;20105;-84
2021/09/06 05:43:56;;;;;;;23.90;16.10;;;;;;;;;;4996684;28;20057;-84
2021/09/06 05:46:27;;;;;;;20.27;14.43;;;;;;;;;;4988406;28;20458;-83
2021/09/06 05:48:55;;;;;;;22.05;15.43;;;;;;;;;;4984496;28;20412;-84
2021/09/06 05:51:25;;;;;;;16.92;14.57;;;;;;;;;;4988174;28;20049;-83
2021/09/06 05:54:14;;;;;;;17.65;14.35;;;;;;;;;;4974664;28;20120;-82
2021/09/06 05:56:41;;;;;;;21.60;13.85;;;;;;;;;;4991728;28;20038;-84
2021/09/06 05:59:11;;;;;;;18.52;13.10;;;;;;;;;;4986469;28;20038;-85
2021/09/06 06:01:39;;;;;;;49.28;15.98;;;;;;;;;;4993537;28;20108;-84
2021/09/06 06:04:07;;;;;;;29.65;14.77;;;;;;;;;;4991889;28;20041;-84
2021/09/06 06:06:38;;;;;;;33.22;14.25;;;;;;;;;;4990357;28;20072;-85
2021/09/06 06:09:06;;;;;;;20.55;12.50;;;;;;;;;;4990472;28;20046;-85
2021/09/06 06:11:37;;;;;;;14.95;12.50;;;;;;;;;;4994186;28;20059;-86
2021/09/06 06:14:06;;;;;;;16.63;12.73;;;;;;;;;;4991129;28;20056;-83
2021/09/06 06:16:35;;;;;;;51.47;16.67;;;;;;;;;;4995072;28;20129;-84
2021/09/06 06:19:02;;;;;;;26.27;13.40;;;;;;;;;;4992715;28;20034;-85
2021/09/06 06:21:37;;;;;;;15.82;12.77;;;;;;;;;;4995572;28;20100;-83
2021/09/06 06:24:19;;;;;;;30.20;13.70;;;;;;;;;;4994038;28;20050;-85
2021/09/06 06:26:56;;;;;;;;;;;;;;;;;;4990076;28;20052;-84
2021/09/06 06:29:24;;;;;;;17.70;13.43;;;;;;;;;;4997158;28;19929;-85
2021/09/06 06:31:53;;;;;;;19.70;15.07;;;;;;;;;;4974803;28;20047;-83
2021/09/06 06:34:24;;;;;;;21.52;16.67;;;;;;;;;;4986178;28;20113;-84
2021/09/06 06:36:51;;;;;;;19.40;17.25;;;;;;;;;;4989582;28;20056;-84
2021/09/06 06:39:24;;;;;;;21.63;16.50;;;;;;;;;;4976190;28;20081;-84
2021/09/06 06:41:56;;;;;;;21.17;15.90;;;;;;;;;;4974973;28;20054;-84
2021/09/06 06:44:27;;;;;;;21.98;17.40;;;;;;;;;;4981643;28;20388;-84
2021/09/06 06:46:56;;;;;;;17.75;16.05;;;;;;;;;;4989812;28;20049;-84
2021/09/06 06:49:26;;;;;;;20.10;16.45;;;;;;;;;;4989979;28;20046;-85
2021/09/06 06:51:54;;;;;;;19.45;17.35;;;;;;;;;;4988487;28;20042;-84
2021/09/06 06:54:23;;;;;;;19.95;17.85;;;;;;;;;;4990694;28;20582;-84
2021/09/06 06:56:52;;;;;;;22.85;19.25;;;;;;;;;;4988624;28;20049;-85
2021/09/06 06:59:20;;;;;;;20.48;18.30;;;;;;;;;;4977166;28;20046;-85
2021/09/06 07:01:48;;;;;;;20.42;18.23;;;;;;;;;;4992090;28;20064;-85
2021/09/06 07:04:18;;;;;;;23.63;21.13;;;;;;;;;;4988608;28;20045;-86
2021/09/06 07:06:46;;;;;;;23.30;20.70;;;;;;;;;;4992376;28;20093;-85
2021/09/06 07:09:14;;;;;;;29.17;22.45;;;;;;;;;;4986143;28;20118;-85
2021/09/06 07:11:42;;;;;;;22.65;20.17;;;;;;;;;;4980596;28;20554;-83
2021/09/06 07:14:10;;;;;;;26.95;20.83;;;;;;;;;;4990331;28;20074;-85
2021/09/06 07:16:38;;;;;;;25.52;21.27;;;;;;;;;;4990243;28;20046;-86
2021/09/06 07:19:07;;;;;;;23.77;20.38;;;;;;;;;;4990069;28;20042;-84
2021/09/06 07:21:35;;;;;;;24.05;21.65;;;;;;;;;;4988656;28;20035;-84
2021/09/06 07:24:04;;;;;;;26.90;21.45;;;;;;;;;;4990402;28;20050;-84
2021/09/06 07:26:32;;;;;;;23.10;20.77;;;;;;;;;;4979350;28;20038;-87
2021/09/06 07:29:06;;;;;;;27.20;20.63;;;;;;;;;;4987187;28;20069;-84
2021/09/06 07:31:35;;;;;;;23.80;21.38;;;;;;;;;;4978598;28;20046;-84
2021/09/06 07:34:07;;;;;;;24.45;20.58;;;;;;;;;;4996768;28;20492;-83
2021/09/06 07:36:36;;;;;;;22.65;20.25;;;;;;;;;;4996347;28;20047;-84
2021/09/06 07:39:05;;;;;;;22.83;20.48;;;;;;;;;;5001352;28;20046;-84
2021/09/06 07:41:35;;;;;;;22.65;20.25;;;;;;;;;;5002457;28;20097;-83
2021/09/06 07:44:03;;;;;;;23.42;20.08;;;;;;;;;;5009914;28;20085;-84
2021/09/06 07:46:33;;;;;;;23.17;20.85;;;;;;;;;;5003554;28;20054;-84
2021/09/06 07:49:05;;;;;;;22.80;19.80;;;;;;;;;;4991808;28;20049;-84
2021/09/06 07:51:33;;;;;;;24.70;20.25;;;;;;;;;;4980907;28;20633;-84
2021/09/06 07:54:07;;;;;;;23.50;21.05;;;;;;;;;;4979979;28;20050;-84
2021/09/06 07:56:56;;;;;;;20.63;18.73;;;;;;;;;;4980127;28;20416;-84
2021/09/06 07:59:27;;;;;;;21.75;19.58;;;;;;;;;;4975277;28;20070;-84
2021/09/06 08:01:55;;;;;;;22.35;20.08;;;;;;;;;;4983336;28;20072;-84
2021/09/06 08:04:23;;;;;;;21.17;19.15;;;;;;;;;;4983979;28;20447;-84
2021/09/06 08:06:51;;;;;;;23.48;21.02;;;;;;;;;;4987345;28;20042;-84
2021/09/06 08:09:20;;;;;;;23.17;19.48;;;;;;;;;;4979100;28;20089;-84
2021/09/06 08:11:48;;;;;;;27.30;21.58;;;;;;;;;;4985444;28;20042;-85
2021/09/06 08:14:27;;;;;;;21.60;19.25;;;;;;;;;;4987444;28;20050;-85
2021/09/06 08:17:14;;;;;;;21.85;19.83;;;;;;;;;;4988447;28;20034;-83
2021/09/06 08:19:41;;;;;;;21.73;19.45;;;;;;;;;;4982350;28;20051;-84
2021/09/06 08:22:11;;;;;;;22.17;19.98;;;;;;;;;;4980856;28;20047;-84
2021/09/06 08:24:43;;;;;;;21.58;19.50;;;;;;;;;;4980324;28;20117;-84
2021/09/06 08:27:11;;;;;;;24.92;20.17;;;;;;;;;;4957913;28;20042;-85
2021/09/06 08:29:39;;;;;;;22.10;19.80;;;;;;;;;;4983028;28;20049;-84
2021/09/06 08:32:07;;;;;;;20.70;18.88;;;;;;;;;;4981544;28;20101;-85
2021/09/06 08:34:35;;;;;;;21.67;19.60;;;;;;;;;;4998435;28;20473;-85
2021/09/06 08:37:03;;;;;;;20.30;18.08;;;;;;;;;;4986517;28;20554;-85
2021/09/06 08:39:32;;;;;;;20.20;18.15;;;;;;;;;;4980306;28;20477;-85
2021/09/06 08:42:01;;;;;;;20.10;18.05;;;;;;;;;;4979381;28;20100;-85
2021/09/06 08:44:29;;;;;;;19.83;17.92;;;;;;;;;;4986352;28;20034;-85
2021/09/06 08:46:57;;;;;;;20.90;18.70;;;;;;;;;;4988369;28;20435;-86
2021/09/06 08:49:25;;;;;;;20.60;18.67;;;;;;;;;;4982073;28;20499;-86
2021/09/06 08:51:53;;;;;;;21.30;18.88;;;;;;;;;;4982898;28;20055;-86
2021/09/06 08:54:21;;;;;;;20.67;18.65;;;;;;;;;;4988742;28;20038;-85
2021/09/06 08:56:49;;;;;;;26.90;24.40;;;;;;;;;;4981347;28;20492;-84
2021/09/06 08:59:20;;;;;;;18.02;16.33;;;;;;;;;;4987083;28;20257;-86
2021/09/06 09:01:52;;;;;;;19.17;17.38;;;;;;;;;;4987699;28;20058;-86
2021/09/06 09:04:38;;;;;;;19.33;17.38;;;;;;;;;;4978924;28;20134;-87
2021/09/06 09:07:21;;;;;;;19.60;16.30;;;;;;;;;;4989566;28;20137;-86
2021/09/06 09:10:49;;;;;;;;;;;;;;;;;;;;;
2021/09/06 09:21:30;;;;;;;16.83;15.27;;;;;;;;;;4942011;29;20139;-89
2021/09/06 09:31:52;;;;;;;16.52;15.02;;;;;;;;;;4819247;29;20091;-89
2021/09/06 09:34:39;;;;;;;15.45;13.93;;;;;;;;;;4949769;29;20407;-74
2021/09/06 09:37:25;;;;;;;17.08;14.52;;;;;;;;;;4933239;29;20095;-74
2021/09/06 09:39:57;;;;;;;15.95;13.63;;;;;;;;;;4930779;29;20126;-74
2021/09/06 09:42:29;;;;;;;15.25;13.80;;;;;;;;;;4958628;28;20042;-74
2021/09/06 09:44:57;;;;;;;14.68;13.20;;;;;;;;;;4970085;28;20051;-74
2021/09/06 09:47:51;;;;;;;14.88;12.70;;;;;;;;;;4972893;23;20535;-70
2021/09/06 09:50:19;;;;;;;15.75;13.07;;;;;;;;;;4960094;28;20518;-70
2021/09/06 09:52:51;;;;;;;14.95;13.65;;;;;;;;;;4964950;28;20063;-70
2021/09/06 09:55:18;;;;;;;14.88;13.48;;;;;;;;;;4955315;29;20392;-70
2021/09/06 09:57:46;;;;;;;15.32;13.80;;;;;;;;;;4967303;28;20101;-70
2021/09/06 10:00:15;;;;;;;16.10;14.27;;;;;;;;;;4969029;28;20142;-71
2021/09/06 10:02:45;;;;;;;16.20;14.32;;;;;;;;;;4953826;28;20050;-70
2021/09/06 10:05:13;;;;;;;15.45;14.00;;;;;;;;;;4955972;28;20067;-70
2021/09/06 10:07:43;;;;;;;14.60;13.20;;;;;;;;;;4966082;28;20046;-69
2021/09/06 10:10:18;;;;;;;16.33;14.73;;;;;;;;;;4968864;28;20038;-70
2021/09/06 10:12:46;;;;;;;15.07;13.57;;;;;;;;;;4973644;28;20039;-69
2021/09/06 10:15:14;;;;;;;16.45;14.25;;;;;;;;;;4972286;28;20042;-70
2021/09/06 10:17:43;;;;;;;14.48;13.07;;;;;;;;;;4959762;28;20099;-70
2021/09/06 10:20:18;;;;;;;14.40;13.10;;;;;;;;;;4959075;28;20130;-70
2021/09/06 10:22:49;;;;;;;14.10;12.70;;;;;;;;;;4971123;28;20054;-69
2021/09/06 10:25:20;;;;;;;13.98;12.65;;;;;;;;;;4971842;28;20047;-69
2021/09/06 10:27:53;;;;;;;13.18;11.88;;;;;;;;;;4960159;28;20392;-70
2021/09/06 10:30:21;;;;;;;12.57;11.30;;;;;;;;;;4962390;28;20047;-69
2021/09/06 10:32:51;;;;;;;12.80;11.50;;;;;;;;;;4947965;28;20464;-69
2021/09/06 10:35:20;;;;;;;12.60;11.52;;;;;;;;;;4972589;28;20050;-69
2021/09/06 10:38:01;;;;;;;12.23;11.07;;;;;;;;;;4970115;28;20202;-69
2021/09/06 10:40:34;;;;;;;12.35;11.10;;;;;;;;;;4968947;28;20043;-69
2021/09/06 10:43:12;;;;;;;11.15;10.10;;;;;;;;;;4958000;28;20054;-69
2021/09/06 10:45:41;;;;;;;10.73;9.68;;;;;;;;;;4956222;28;20035;-69
2021/09/06 10:48:09;;;;;;;13.38;10.35;;;;;;;;;;4954633;28;20320;-68
2021/09/06 10:50:38;;;;;;;11.00;9.80;;;;;;;;;;4950466;29;20043;-69
2021/09/06 10:53:06;;;;;;;10.20;9.27;;;;;;;;;;4932289;29;20051;-69
2021/09/06 10:55:36;;;;;;;10.00;9.00;;;;;;;;;;4951833;29;20125;-69
2021/09/06 10:58:11;;;;;;;10.75;9.75;;;;;;;;;;4949205;29;20040;-68
2021/09/06 11:00:39;;;;;;;11.13;9.00;;;;;;;;;;4940306;29;20050;-69
2021/09/06 11:03:07;;;;;;;9.70;8.90;;;;;;;;;;4951795;29;20047;-69
2021/09/06 11:05:34;;;;;;;7.68;7.00;;;;;;;;;;4935954;29;20044;-69
2021/09/06 11:08:05;;;;;;;7.72;7.03;;;;;;;;;;4927048;29;20043;-69
2021/09/06 11:10:34;;;;;;;8.15;7.35;;;;;;;;;;4930770;29;20083;-69
2021/09/06 11:13:04;;;;;;;14.90;8.05;;;;;;;;;;4947966;29;20039;-69
2021/09/06 11:15:32;;;;;;;11.10;8.60;;;;;;;;;;4936826;29;20126;-70
2021/09/06 11:18:01;;;;;;;9.35;7.93;;;;;;;;;;4940623;29;20108;-70
2021/09/06 11:20:30;;;;;;;8.93;8.02;;;;;;;;;;4923677;29;20111;-69
2021/09/06 11:23:01;;;;;;;8.68;7.88;;;;;;;;;;4943331;29;20628;-69
2021/09/06 11:25:31;;;;;;;9.23;8.15;;;;;;;;;;4936437;29;20063;-70
2021/09/06 11:28:09;;;;;;;11.52;8.10;;;;;;;;;;4929262;29;20467;-70
2021/09/06 11:30:38;;;;;;;8.98;8.07;;;;;;;;;;4948672;29;20087;-70
2021/09/06 11:33:09;;;;;;;9.25;8.40;;;;;;;;;;4937513;29;20071;-70
2021/09/06 11:35:37;;;;;;;10.98;7.97;;;;;;;;;;4950958;29;20047;-70
2021/09/06 11:38:05;;;;;;;8.80;7.70;;;;;;;;;;4948387;29;20047;-70
2021/09/06 11:40:32;;;;;;;8.52;7.53;;;;;;;;;;4948354;29;20059;-70
2021/09/06 11:43:00;;;;;;;8.52;7.65;;;;;;;;;;4920002;29;20074;-70
2021/09/06 11:45:30;;;;;;;9.52;7.82;;;;;;;;;;4920362;29;20048;-70
2021/09/06 11:48:01;;;;;;;10.50;7.57;;;;;;;;;;4954201;28;20059;-70
2021/09/06 11:50:30;;;;;;;12.98;8.48;;;;;;;;;;4956852;28;20043;-71
2021/09/06 11:53:01;;;;;;;9.85;8.85;;;;;;;;;;4971389;28;20150;-71
2021/09/06 11:55:29;;;;;;;12.65;10.27;;;;;;;;;;4968388;28;20046;-70
2021/09/06 11:58:06;;;;;;;7.88;7.07;;;;;;;;;;4964077;28;20039;-71
2021/09/06 12:00:33;;;;;;;;;;;;;;;;;;4957135;28;20114;-71
2021/09/06 12:03:02;;;;;;;8.82;7.53;;;;;;;;;;4971201;28;19964;-71
2021/09/06 12:05:38;;;;;;;8.13;7.30;;;;;;;;;;4952318;28;20051;-70
2021/09/06 12:08:10;;;;;;;8.05;7.28;;;;;;;;;;4962438;28;20296;-70
2021/09/06 12:10:38;;;;;;;8.23;7.53;;;;;;;;;;4973397;28;20035;-71
2021/09/06 12:13:07;;;;;;;8.88;7.88;;;;;;;;;;4973529;28;20134;-69
2021/09/06 12:15:36;;;;;;;8.63;7.72;;;;;;;;;;4957163;28;20412;-71
2021/09/06 12:18:11;;;;;;;8.45;7.68;;;;;;;;;;4958520;28;20039;-70
2021/09/06 12:20:41;;;;;;;8.23;7.53;;;;;;;;;;4959642;28;20046;-71
2021/09/06 12:23:10;;;;;;;8.52;7.82;;;;;;;;;;4961659;28;20467;-71
2021/09/06 12:25:37;;;;;;;8.70;7.88;;;;;;;;;;4957468;28;20162;-71
2021/09/06 12:28:09;;;;;;;8.25;7.45;;;;;;;;;;4959194;28;20039;-71
2021/09/06 12:30:36;;;;;;;7.82;7.13;;;;;;;;;;4954696;28;20039;-71
2021/09/06 12:33:03;;;;;;;8.15;7.40;;;;;;;;;;4962663;28;20050;-71
2021/09/06 12:35:32;;;;;;;8.48;7.68;;;;;;;;;;4945326;28;20521;-71
2021/09/06 12:37:59;;;;;;;8.68;7.88;;;;;;;;;;4960654;28;20514;-70
2021/09/06 12:40:27;;;;;;;8.48;7.68;;;;;;;;;;4968798;28;20034;-71
2021/09/06 12:42:54;;;;;;;8.15;7.35;;;;;;;;;;4968369;28;20042;-71
2021/09/06 12:45:21;;;;;;;10.88;7.32;;;;;;;;;;4960058;28;20069;-71
2021/09/06 12:47:49;;;;;;;7.90;7.20;;;;;;;;;;4966636;28;20416;-70
2021/09/06 12:50:16;;;;;;;8.20;7.40;;;;;;;;;;4957287;28;20413;-70
2021/09/06 12:52:45;;;;;;;8.35;7.22;;;;;;;;;;4967293;28;20046;-71
2021/09/06 12:55:12;;;;;;;7.40;6.80;;;;;;;;;;4946567;28;20054;-73
2021/09/06 12:57:40;;;;;;;7.57;6.93;;;;;;;;;;4959638;28;20047;-73
2021/09/06 13:00:08;;;;;;;8.00;7.22;;;;;;;;;;4970737;28;20058;-74
2021/09/06 13:02:36;;;;;;;8.05;7.25;;;;;;;;;;4959339;28;20576;-73
2021/09/06 13:05:03;;;;;;;8.43;7.47;;;;;;;;;;4965543;28;20043;-74
2021/09/06 13:07:32;;;;;;;9.63;7.47;;;;;;;;;;4949617;28;20125;-74
2021/09/06 13:10:00;;;;;;;7.70;6.95;;;;;;;;;;4965197;28;20113;-73
2021/09/06 13:12:27;;;;;;;9.07;8.00;;;;;;;;;;4961615;28;20046;-73
2021/09/06 13:14:55;;;;;;;9.80;7.60;;;;;;;;;;4962456;28;20398;-73
2021/09/06 13:17:22;;;;;;;8.52;7.32;;;;;;;;;;4964617;28;20112;-74
2021/09/06 13:19:50;;;;;;;7.63;7.03;;;;;;;;;;4961743;28;20359;-74
2021/09/06 13:22:19;;;;;;;8.27;7.53;;;;;;;;;;4962471;28;20061;-74
2021/09/06 13:24:47;;;;;;;7.60;6.90;;;;;;;;;;4961838;28;20043;-74
2021/09/06 13:27:15;;;;;;;8.07;7.47;;;;;;;;;;4961720;28;20038;-75
2021/09/06 13:29:43;;;;;;;9.70;7.20;;;;;;;;;;4960732;28;20122;-74
2021/09/06 13:32:10;;;;;;;7.88;7.18;;;;;;;;;;4938969;28;20990;-74
2021/09/06 13:34:37;;;;;;;8.05;7.38;;;;;;;;;;4961849;28;20050;-73
2021/09/06 13:37:05;;;;;;;8.38;7.15;;;;;;;;;;4960847;28;20050;-74
2021/09/06 13:39:32;;;;;;;8.05;7.22;;;;;;;;;;4944166;28;20155;-74
2021/09/06 13:42:00;;;;;;;8.27;7.38;;;;;;;;;;4961663;28;20129;-74
2021/09/06 13:44:29;;;;;;;8.82;7.70;;;;;;;;;;4961047;28;20065;-74
2021/09/06 13:46:56;;;;;;;8.95;7.68;;;;;;;;;;4961610;28;20055;-74
2021/09/06 13:49:23;;;;;;;8.18;7.38;;;;;;;;;;4964020;28;20030;-74
2021/09/06 13:51:50;;;;;;;7.90;7.20;;;;;;;;;;4961674;28;20073;-75
2021/09/06 13:54:18;;;;;;;8.05;7.30;;;;;;;;;;4962214;28;20043;-74
2021/09/06 13:56:46;;;;;;;7.22;6.57;;;;;;;;;;4948681;28;20055;-75
2021/09/06 13:59:13;;;;;;;7.20;6.60;;;;;;;;;;4964539;28;20068;-75
2021/09/06 14:01:41;;;;;;;8.48;6.82;;;;;;;;;;4962711;28;20050;-75
2021/09/06 14:04:09;;;;;;;6.75;6.25;;;;;;;;;;4962358;28;20051;-75
2021/09/06 14:06:37;;;;;;;9.02;7.32;;;;;;;;;;4945144;28;21446;-75
2021/09/06 14:09:04;;;;;;;8.93;6.70;;;;;;;;;;4970589;28;20106;-74
2021/09/06 14:11:32;;;;;;;6.50;5.88;;;;;;;;;;4957457;28;20042;-75
2021/09/06 14:13:59;;;;;;;8.60;6.00;;;;;;;;;;4962900;28;20055;-76
2021/09/06 14:16:26;;;;;;;6.95;6.35;;;;;;;;;;4968418;28;20071;-76
2021/09/06 14:18:55;;;;;;;6.10;5.47;;;;;;;;;;4971030;28;20077;-75
2021/09/06 14:21:23;;;;;;;6.63;5.95;;;;;;;;;;4990318;28;20031;-75
2021/09/06 14:23:54;;;;;;;6.20;5.65;;;;;;;;;;4991249;28;20047;-75
2021/09/06 14:26:23;;;;;;;6.68;6.18;;;;;;;;;;4965202;28;20081;-76
2021/09/06 14:28:50;;;;;;;6.43;5.82;;;;;;;;;;4964224;28;20102;-76
2021/09/06 14:31:17;;;;;;;6.00;5.45;;;;;;;;;;4950699;28;20130;-75
2021/09/06 14:33:45;;;;;;;5.97;5.47;;;;;;;;;;4990239;28;20038;-74
2021/09/06 14:36:14;;;;;;;7.50;5.95;;;;;;;;;;4967347;28;20095;-74
2021/09/06 14:38:42;;;;;;;4.97;4.57;;;;;;;;;;4989146;28;20034;-75
2021/09/06 14:41:12;;;;;;;6.38;5.70;;;;;;;;;;4982387;28;20054;-76
2021/09/06 14:43:40;;;;;;;6.82;5.45;;;;;;;;;;4974688;28;20071;-75
2021/09/06 14:46:08;;;;;;;6.53;5.18;;;;;;;;;;4991817;28;20047;-76
2021/09/06 14:48:38;;;;;;;8.68;5.95;;;;;;;;;;4991595;28;20047;-75
2021/09/06 14:51:07;;;;;;;6.35;5.75;;;;;;;;;;4992546;28;20039;-76
2021/09/06 14:53:38;;;;;;;6.90;5.65;;;;;;;;;;4971915;28;20070;-74
2021/09/06 14:56:06;;;;;;;6.80;5.93;;;;;;;;;;4949510;28;20515;-77
2021/09/06 14:58:35;;;;;;;5.47;4.82;;;;;;;;;;4968279;28;20051;-76